Time;durP1;ratioP1;P1;durP2;ratioP2;P2;SDS_P1;SDS_P2;PMS_P1;PMS_P2;Temp;Humidity;BMP_temperature;BMP_pressure;BME280_temperature;BME280_humidity;BME280_pressure;Samples;Min_cycle;Max_cycle;Signal;HPM_P1;HPM_P2
2023/09/13 00:02:00;;;;;;;7.80;1.60;;;;;;;19.23;51.55;101224.29;107417;1254;99329;-64
2023/09/13 00:04:29;;;;;;;7.90;1.60;;;;;;;19.26;51.67;101220.52;107413;1254;113132;-64
2023/09/13 00:06:57;;;;;;;10.50;1.80;;;;;;;19.29;51.54;101221.98;107383;1254;109259;-64
2023/09/13 00:09:26;;;;;;;8.00;1.60;;;;;;;19.30;51.43;101215.64;107371;1254;108926;-64
2023/09/13 00:11:54;;;;;;;6.00;1.70;;;;;;;19.31;51.41;101217.48;107388;1254;99173;-63
2023/09/13 00:14:22;;;;;;;14.10;2.00;;;;;;;19.33;51.34;101216.03;107377;1257;99732;-64
2023/09/13 00:16:50;;;;;;;5.20;1.60;;;;;;;19.34;51.22;101215.70;107350;1257;112706;-64
2023/09/13 00:19:19;;;;;;;6.60;1.80;;;;;;;19.34;51.26;101219.83;107392;1254;109098;-64
2023/09/13 00:21:48;;;;;;;9.30;1.70;;;;;;;19.34;51.31;101217.82;107391;1254;108329;-64
2023/09/13 00:24:17;;;;;;;5.10;1.80;;;;;;;19.35;51.05;101214.85;107386;1254;99169;-62
2023/09/13 00:26:45;;;;;;;2.90;1.80;;;;;;;19.34;51.14;101215.27;107388;1253;99730;-64
2023/09/13 00:29:15;;;;;;;5.60;2.00;;;;;;;19.34;51.01;101216.73;107380;1254;113097;-64
2023/09/13 00:31:43;;;;;;;5.80;1.70;;;;;;;19.34;51.33;101219.36;107333;1254;110017;-63
2023/09/13 00:34:11;;;;;;;11.50;1.90;;;;;;;19.33;51.23;101218.58;107367;1254;107520;-63
2023/09/13 00:36:40;;;;;;;13.50;2.00;;;;;;;19.33;51.17;101223.33;107392;1254;99303;-63
2023/09/13 00:39:08;;;;;;;9.00;2.10;;;;;;;19.33;51.41;101225.80;107409;1254;99742;-63
2023/09/13 00:41:36;;;;;;;7.50;1.40;;;;;;;19.32;51.38;101222.89;107313;1254;112659;-63
2023/09/13 00:44:05;;;;;;;4.40;1.80;;;;;;;19.31;51.10;101221.55;107365;1254;109817;-64
2023/09/13 00:46:35;;;;;;;6.10;1.60;;;;;;;19.30;51.19;101226.33;107298;1254;108692;-64
2023/09/13 00:49:04;;;;;;;4.10;1.70;;;;;;;19.29;51.07;101226.33;107417;1254;99067;-64
2023/09/13 00:51:33;;;;;;;2.90;1.70;;;;;;;19.27;51.21;101222.31;107335;1254;97841;-63
2023/09/13 00:54:04;;;;;;;9.30;2.00;;;;;;;19.25;51.18;101221.13;107458;1254;112221;-64
2023/09/13 00:56:34;;;;;;;2.70;1.70;;;;;;;19.22;51.30;101214.58;107328;1254;110187;-64
2023/09/13 00:59:03;;;;;;;4.40;2.10;;;;;;;19.18;51.25;101213.59;107417;1254;106851;-64
2023/09/13 01:01:32;;;;;;;10.70;2.00;;;;;;;19.13;51.45;101215.30;107337;1254;99193;-63
2023/09/13 01:04:00;;;;;;;17.10;2.80;;;;;;;19.06;51.82;101219.13;107399;1253;99168;-63
2023/09/13 01:06:29;;;;;;;10.50;2.20;;;;;;;18.97;52.05;101216.20;107382;1253;113047;-65
2023/09/13 01:08:57;;;;;;;11.10;2.40;;;;;;;18.89;52.25;101217.61;107286;1254;109673;-64
2023/09/13 01:11:26;;;;;;;9.90;2.10;;;;;;;18.82;52.59;101216.33;107373;1254;108694;-63
2023/09/13 01:13:55;;;;;;;4.90;2.00;;;;;;;18.73;53.01;101214.06;107381;1254;99176;-66
2023/09/13 01:16:26;;;;;;;5.60;1.90;;;;;;;18.65;53.25;101216.50;107419;1254;99304;-63
2023/09/13 01:19:06;;;;;;;9.30;1.80;;;;;;;18.58;53.42;101216.39;107372;1257;113726;-64
2023/09/13 01:22:00;;;;;;;10.40;2.30;;;;;;;18.48;53.86;101221.35;107374;1257;109069;-63
2023/09/13 01:24:40;;;;;;;9.50;2.50;;;;;;;18.38;54.40;101221.73;107352;1257;106877;-63
2023/09/13 01:27:57;;;;;;;16.30;2.50;;;;;;;18.28;54.39;101219.94;107201;1260;99213;-65
2023/09/13 01:30:28;;;;;;;8.30;2.20;;;;;;;18.19;55.69;101221.04;106860;1256;99240;-63
2023/09/13 01:32:57;;;;;;;6.50;2.10;;;;;;;18.10;55.58;101219.25;107414;1257;112271;-64
2023/09/13 01:35:26;;;;;;;7.90;2.40;;;;;;;18.03;55.47;101222.65;107383;1257;110036;-64
2023/09/13 01:37:54;;;;;;;6.30;2.60;;;;;;;17.96;55.75;101224.63;107349;1257;108158;-64
2023/09/13 01:40:26;;;;;;;10.60;2.40;;;;;;;17.92;55.73;101225.61;107247;1257;99207;-63
2023/09/13 01:42:59;;;;;;;5.90;2.60;;;;;;;17.88;56.58;101226.05;107440;1254;99840;-64
2023/09/13 01:45:31;;;;;;;13.00;3.20;;;;;;;17.80;56.87;101223.64;107155;1257;113473;-63
2023/09/13 01:48:02;;;;;;;6.00;2.10;;;;;;;17.73;56.71;101222.64;107301;1257;109726;-64
2023/09/13 01:50:31;;;;;;;15.50;2.80;;;;;;;17.70;56.91;101223.61;107224;1254;107620;-64
2023/09/13 01:53:03;;;;;;;13.40;2.70;;;;;;;17.67;56.83;101222.27;107386;1254;99833;-64
2023/09/13 01:55:35;;;;;;;12.40;2.50;;;;;;;17.64;57.16;101218.23;107390;1254;99091;-64
2023/09/13 01:58:04;;;;;;;9.70;2.60;;;;;;;17.61;57.56;101222.59;107337;1254;113243;-64
2023/09/13 02:00:32;;;;;;;7.20;1.80;;;;;;;17.58;57.65;101216.36;107184;1257;109985;-64
2023/09/13 02:03:00;;;;;;;6.50;2.20;;;;;;;17.55;57.85;101225.96;107258;1257;107948;-64
2023/09/13 02:05:28;;;;;;;13.00;2.50;;;;;;;17.50;57.84;101226.45;107298;1254;99100;-64
2023/09/13 02:07:57;;;;;;;4.80;2.20;;;;;;;17.49;57.79;101224.23;107386;1254;99157;-64
2023/09/13 02:10:25;;;;;;;10.70;2.50;;;;;;;17.49;57.80;101221.91;107401;1254;112605;-63
2023/09/13 02:12:58;;;;;;;10.00;2.50;;;;;;;17.48;58.21;101225.22;107446;1254;108259;-63
2023/09/13 02:15:27;;;;;;;10.80;2.30;;;;;;;17.47;58.05;101220.88;107238;1257;108902;-64
2023/09/13 02:17:57;;;;;;;7.50;2.70;;;;;;;17.45;58.19;101218.39;107376;1257;99258;-64
2023/09/13 02:20:25;;;;;;;7.90;2.50;;;;;;;17.43;58.38;101219.31;107360;1256;99971;-64
2023/09/13 02:22:53;;;;;;;11.50;2.60;;;;;;;17.41;58.45;101217.67;107366;1256;112497;-63
2023/09/13 02:25:21;;;;;;;16.00;3.30;;;;;;;17.40;58.62;101220.02;107388;1257;108945;-65
2023/09/13 02:27:50;;;;;;;6.50;2.80;;;;;;;17.38;58.76;101220.05;107362;1255;108698;-64
2023/09/13 02:30:19;;;;;;;10.10;2.50;;;;;;;17.37;58.61;101221.77;107192;1256;99191;-64
2023/09/13 02:32:49;;;;;;;5.50;2.10;;;;;;;17.36;58.42;101220.95;107343;1258;99077;-64
2023/09/13 02:35:17;;;;;;;6.00;2.60;;;;;;;17.35;58.36;101220.73;107214;1257;111857;-63
2023/09/13 02:37:46;;;;;;;8.60;2.80;;;;;;;17.32;58.39;101217.75;107259;1260;109687;-64
2023/09/13 02:40:14;;;;;;;11.80;2.40;;;;;;;17.29;58.42;101220.63;107369;1257;108342;-63
2023/09/13 02:42:43;;;;;;;11.90;2.90;;;;;;;17.26;58.48;101219.30;107337;1254;99342;-63
2023/09/13 02:45:13;;;;;;;5.10;2.90;;;;;;;17.25;58.64;101218.73;107387;1257;99275;-64
2023/09/13 02:47:42;;;;;;;6.80;2.80;;;;;;;17.23;58.66;101217.13;107358;1256;113280;-64
2023/09/13 02:50:11;;;;;;;11.90;3.40;;;;;;;17.21;58.48;101212.41;107252;1257;109765;-64
2023/09/13 02:52:40;;;;;;;12.60;3.80;;;;;;;17.20;58.56;101215.98;107199;1257;107972;-63
2023/09/13 02:55:08;;;;;;;10.30;3.70;;;;;;;17.18;58.42;101214.24;107217;1260;99255;-62
2023/09/13 02:57:37;;;;;;;18.20;3.80;;;;;;;17.15;58.44;101215.63;107370;1257;99220;-63
2023/09/13 03:00:06;;;;;;;12.20;3.20;;;;;;;17.11;58.44;101217.70;107400;1257;113407;-63
2023/09/13 03:02:38;;;;;;;12.80;3.00;;;;;;;17.04;58.31;101217.19;107365;1256;109904;-63
2023/09/13 03:05:08;;;;;;;11.40;3.40;;;;;;;16.99;58.26;101214.52;107353;1256;108230;-64
2023/09/13 03:07:37;;;;;;;11.20;3.10;;;;;;;16.93;58.50;101212.77;107249;1260;99182;-63
2023/09/13 03:10:05;;;;;;;10.80;3.70;;;;;;;16.87;58.60;101212.44;107370;1257;99217;-63
2023/09/13 03:12:34;;;;;;;12.90;4.60;;;;;;;16.82;58.74;101210.08;107309;1257;112428;-64
2023/09/13 03:15:05;;;;;;;18.00;4.80;;;;;;;16.78;58.65;101208.78;107431;1254;109709;-62
2023/09/13 03:17:33;;;;;;;19.80;4.10;;;;;;;16.73;58.84;101204.52;107374;1254;108587;-64
2023/09/13 03:20:03;;;;;;;19.90;3.90;;;;;;;16.69;58.93;101212.40;107369;1257;99195;-64
2023/09/13 03:22:32;;;;;;;11.00;4.30;;;;;;;16.66;59.34;101206.45;107251;1256;99125;-62
2023/09/13 03:25:01;;;;;;;13.30;4.40;;;;;;;16.58;59.84;101205.85;107279;1260;112494;-63
2023/09/13 03:27:31;;;;;;;17.50;3.60;;;;;;;16.51;59.72;101205.98;107406;1254;108965;-62
2023/09/13 03:30:00;;;;;;;16.50;4.50;;;;;;;16.48;59.87;101208.84;107324;1254;108441;-64
2023/09/13 03:32:29;;;;;;;9.70;3.80;;;;;;;16.46;59.94;101208.55;107399;1257;99207;-64
2023/09/13 03:34:58;;;;;;;21.90;4.00;;;;;;;16.44;60.04;101209.63;107375;1254;99207;-64
2023/09/13 03:37:27;;;;;;;19.70;3.90;;;;;;;16.45;60.16;101207.05;107304;1254;112901;-63
2023/09/13 03:39:56;;;;;;;17.20;4.80;;;;;;;16.46;60.33;101209.16;107444;1254;107947;-64
2023/09/13 03:42:24;;;;;;;16.40;4.30;;;;;;;16.46;60.48;101210.42;107280;1254;108111;-63
2023/09/13 03:44:53;;;;;;;13.30;4.30;;;;;;;16.47;60.64;101213.89;107325;1257;99851;-63
2023/09/13 03:47:21;;;;;;;10.40;3.40;;;;;;;16.48;60.56;101214.88;107283;1260;99142;-62
2023/09/13 03:49:51;;;;;;;17.90;4.60;;;;;;;16.47;60.61;101212.40;107291;1257;113611;-64
2023/09/13 03:52:19;;;;;;;11.30;3.80;;;;;;;16.49;60.74;101214.45;107362;1254;109739;-63
2023/09/13 03:54:47;;;;;;;13.20;3.50;;;;;;;16.48;60.76;101214.60;107305;1254;108703;-62
2023/09/13 03:57:16;;;;;;;17.90;3.80;;;;;;;16.49;60.89;101221.39;107258;1257;99281;-62
2023/09/13 03:59:44;;;;;;;23.80;4.10;;;;;;;16.51;60.88;101225.58;107273;1256;99256;-63
2023/09/13 04:02:13;;;;;;;19.20;3.50;;;;;;;16.53;60.98;101222.77;107387;1254;113728;-63
2023/09/13 04:04:42;;;;;;;13.40;4.60;;;;;;;16.55;60.99;101223.87;107384;1257;109972;-63
2023/09/13 04:07:11;;;;;;;25.40;5.00;;;;;;;16.57;60.98;101222.41;107253;1256;107824;-64
2023/09/13 04:09:39;;;;;;;11.80;4.30;;;;;;;16.59;61.04;101224.89;107389;1256;99201;-63
2023/09/13 04:12:07;;;;;;;18.00;4.30;;;;;;;16.62;61.07;101223.88;107375;1254;99090;-64
2023/09/13 04:14:36;;;;;;;14.60;3.40;;;;;;;16.65;61.03;101226.64;107396;1257;112888;-65
2023/09/13 04:17:04;;;;;;;8.50;3.80;;;;;;;16.67;60.96;101223.36;106985;1256;109306;-63
2023/09/13 04:19:32;;;;;;;17.60;4.20;;;;;;;16.66;60.86;101225.97;107173;1256;108142;-63
2023/09/13 04:22:01;;;;;;;21.80;3.80;;;;;;;16.67;60.95;101223.20;107282;1254;99145;-64
2023/09/13 04:24:30;;;;;;;18.80;3.80;;;;;;;16.68;61.07;101218.87;107291;1254;99147;-65
2023/09/13 04:26:58;;;;;;;16.10;3.00;;;;;;;16.70;61.19;101223.70;107247;1257;113315;-64
2023/09/13 04:29:26;;;;;;;23.80;3.10;;;;;;;16.73;61.13;101226.29;107210;1254;109703;-62
2023/09/13 04:31:54;;;;;;;15.80;3.70;;;;;;;16.77;61.19;101226.10;107368;1257;107509;-63
2023/09/13 04:34:23;;;;;;;19.20;4.80;;;;;;;16.79;61.19;101228.73;107244;1257;99266;-66
2023/09/13 04:36:51;;;;;;;21.30;3.30;;;;;;;16.82;61.27;101225.94;107245;1257;99287;-64
2023/09/13 04:39:19;;;;;;;24.70;3.60;;;;;;;16.85;61.27;101230.43;107236;1255;112475;-64
2023/09/13 04:41:48;;;;;;;36.70;4.50;;;;;;;16.89;61.42;101230.92;107429;1254;109409;-64
2023/09/13 04:44:16;;;;;;;21.30;4.90;;;;;;;16.93;61.29;101229.26;107250;1257;107382;-62
2023/09/13 04:46:44;;;;;;;18.60;3.60;;;;;;;16.97;61.29;101227.54;107247;1257;99195;-63
2023/09/13 04:49:13;;;;;;;38.80;4.00;;;;;;;17.00;61.26;101227.23;107313;1257;99193;-64
2023/09/13 04:51:43;;;;;;;32.20;4.50;;;;;;;16.99;61.15;101227.70;107296;1254;113804;-63
2023/09/13 04:54:11;;;;;;;28.20;3.90;;;;;;;17.01;61.27;101232.42;107380;1254;108406;-63
2023/09/13 04:56:40;;;;;;;25.90;3.40;;;;;;;17.02;61.08;101236.04;107412;1254;108682;-63
2023/09/13 04:59:09;;;;;;;21.20;3.90;;;;;;;17.03;60.97;101235.25;107293;1254;99135;-63
2023/09/13 05:01:37;;;;;;;29.40;11.30;;;;;;;17.04;61.14;101232.56;107186;1256;99784;-64
2023/09/13 05:04:05;;;;;;;16.60;3.60;;;;;;;17.06;61.05;101233.29;107270;1257;113802;-63
2023/09/13 05:06:34;;;;;;;20.90;3.50;;;;;;;17.08;61.12;101233.08;107332;1257;108665;-64
2023/09/13 05:09:02;;;;;;;14.40;3.30;;;;;;;17.11;61.32;101233.09;107345;1256;107322;-64
2023/09/13 05:11:31;;;;;;;24.30;4.80;;;;;;;17.14;61.24;101234.56;107316;1257;99109;-63
2023/09/13 05:14:12;;;;;;;24.80;5.20;;;;;;;17.16;61.35;101229.27;107384;1257;99475;-64
2023/09/13 05:16:41;;;;;;;26.50;4.80;;;;;;;17.20;61.20;101229.23;107411;1254;111478;-63
2023/09/13 05:19:09;;;;;;;25.30;4.60;;;;;;;17.22;61.38;101227.90;107363;1257;109546;-63
2023/09/13 05:21:37;;;;;;;15.60;4.20;;;;;;;17.26;61.34;101231.17;107371;1257;108119;-63
2023/09/13 05:24:07;;;;;;;22.00;4.20;;;;;;;17.28;61.63;101225.50;107342;1255;99269;-63
2023/09/13 05:26:36;;;;;;;26.90;5.20;;;;;;;17.30;61.57;101227.80;107350;1257;99063;-64
2023/09/13 05:29:04;;;;;;;27.30;4.30;;;;;;;17.34;61.54;101229.33;107382;1257;111359;-63
2023/09/13 05:31:33;;;;;;;21.20;5.00;;;;;;;17.39;61.43;101231.75;107280;1254;110011;-63
2023/09/13 05:34:01;;;;;;;13.90;4.50;;;;;;;17.44;61.46;101227.91;107375;1254;108585;-64
2023/09/13 05:36:29;;;;;;;19.80;4.30;;;;;;;17.48;61.49;101228.31;107374;1254;99175;-64
2023/09/13 05:38:58;;;;;;;18.90;4.30;;;;;;;17.54;61.58;101227.31;107404;1254;99182;-64
2023/09/13 05:41:26;;;;;;;11.90;3.20;;;;;;;17.60;61.68;101226.83;107377;1259;113348;-62
2023/09/13 05:43:55;;;;;;;13.50;4.20;;;;;;;17.67;61.92;101229.56;107345;1257;109930;-64
2023/09/13 05:46:23;;;;;;;11.10;3.80;;;;;;;17.74;61.79;101231.11;107360;1256;108346;-63
2023/09/13 05:48:52;;;;;;;8.00;2.90;;;;;;;17.80;61.75;101231.85;107372;1256;99197;-63
2023/09/13 05:51:20;;;;;;;7.70;3.10;;;;;;;17.86;61.58;101233.37;107340;1257;99727;-63
2023/09/13 05:53:48;;;;;;;12.80;3.40;;;;;;;17.94;61.54;101229.28;107368;1257;112686;-65
2023/09/13 05:56:16;;;;;;;15.60;3.50;;;;;;;18.01;61.61;101227.71;107308;1257;108961;-64
2023/09/13 05:58:44;;;;;;;14.00;3.10;;;;;;;18.07;61.41;101228.65;107405;1257;107446;-64
2023/09/13 06:01:12;;;;;;;10.50;3.40;;;;;;;18.15;61.17;101223.66;107312;1256;99177;-64
2023/09/13 06:03:41;;;;;;;9.00;3.20;;;;;;;18.22;61.06;101222.61;107390;1257;99181;-64
2023/09/13 06:06:10;;;;;;;7.40;3.50;;;;;;;18.31;61.07;101225.45;107215;1256;112325;-64
2023/09/13 06:08:38;;;;;;;7.30;3.90;;;;;;;18.39;60.80;101224.19;107228;1256;108782;-64
2023/09/13 06:11:07;;;;;;;16.20;3.70;;;;;;;18.48;60.78;101228.98;107212;1259;106932;-64
2023/09/13 06:13:36;;;;;;;6.40;3.60;;;;;;;18.57;60.72;101225.15;107384;1259;99172;-65
2023/09/13 06:16:04;;;;;;;10.30;3.70;;;;;;;18.67;60.42;101224.05;107364;1254;99182;-62
2023/09/13 06:18:32;;;;;;;10.40;3.40;;;;;;;18.75;60.18;101225.05;107356;1257;111894;-63
2023/09/13 06:21:03;;;;;;;6.50;3.30;;;;;;;18.82;59.98;101224.30;107389;1257;109008;-64
2023/09/13 06:23:36;;;;;;;7.50;3.90;;;;;;;18.89;59.91;101224.77;107363;1257;108531;-64
2023/09/13 06:26:05;;;;;;;9.50;3.40;;;;;;;18.96;59.62;101224.34;107362;1257;99191;-65
2023/09/13 06:28:34;;;;;;;21.10;3.70;;;;;;;19.05;59.54;101226.32;107385;1256;99275;-62
2023/09/13 06:31:02;;;;;;;15.70;3.90;;;;;;;19.14;59.50;101227.33;107395;1256;111898;-62
2023/09/13 06:33:32;;;;;;;8.20;3.10;;;;;;;19.21;59.18;101230.73;107369;1258;110076;-64
2023/09/13 06:36:09;;;;;;;10.30;3.30;;;;;;;19.28;59.05;101228.48;107337;1257;107373;-63
2023/09/13 06:38:39;;;;;;;14.20;3.80;;;;;;;19.35;59.05;101224.42;107346;1257;99185;-65
2023/09/13 06:41:08;;;;;;;12.50;2.90;;;;;;;19.43;58.97;101221.36;107391;1257;99150;-64
2023/09/13 06:43:38;;;;;;;14.90;3.30;;;;;;;19.50;58.72;101224.50;107363;1257;113958;-65
2023/09/13 06:46:27;;;;;;;11.50;2.60;;;;;;;19.58;58.56;101221.75;107235;1257;108533;-63
2023/09/13 06:48:57;;;;;;;7.90;2.90;;;;;;;19.66;58.51;101223.02;107350;1258;108420;-64
2023/09/13 06:51:26;;;;;;;9.50;4.20;;;;;;;19.74;58.53;101224.42;107324;1256;99067;-64
2023/09/13 06:53:58;;;;;;;13.00;3.00;;;;;;;19.82;58.20;101226.17;107304;1257;99193;-64
2023/09/13 06:56:29;;;;;;;14.30;3.40;;;;;;;19.92;57.78;101225.60;107325;1257;111366;-66
2023/09/13 06:59:02;;;;;;;5.60;2.60;;;;;;;20.01;57.44;101223.93;107274;1257;109961;-64
2023/09/13 07:01:33;;;;;;;10.30;2.70;;;;;;;20.11;57.34;101217.81;107230;1257;107193;-64
2023/09/13 07:04:22;;;;;;;7.40;3.20;;;;;;;20.22;57.14;101219.10;107219;1257;99194;-65
2023/09/13 07:06:59;;;;;;;13.20;3.20;;;;;;;20.33;56.95;101220.14;107405;1254;99182;-66
2023/09/13 07:09:27;;;;;;;7.70;2.70;;;;;;;20.44;56.65;101223.80;107391;1255;112488;-65
2023/09/13 07:11:55;;;;;;;8.40;2.90;;;;;;;20.54;56.33;101224.39;107414;1254;109228;-65
2023/09/13 07:14:23;;;;;;;12.70;3.80;;;;;;;20.64;56.15;101226.94;107303;1257;108320;-65
2023/09/13 07:16:52;;;;;;;8.40;3.60;;;;;;;20.74;56.06;101227.30;107365;1256;99645;-65
2023/09/13 07:19:20;;;;;;;5.50;2.70;;;;;;;20.84;56.00;101227.84;107370;1254;99090;-65
2023/09/13 07:21:49;;;;;;;5.90;2.50;;;;;;;20.93;55.89;101230.67;107393;1254;113279;-66
2023/09/13 07:24:17;;;;;;;11.80;3.10;;;;;;;21.04;55.74;101233.86;107337;1254;109850;-66
2023/09/13 07:26:46;;;;;;;14.20;3.50;;;;;;;21.14;55.70;101232.33;107368;1257;108293;-69
2023/09/13 07:29:14;;;;;;;7.90;2.90;;;;;;;21.24;55.16;101230.35;107334;1260;99065;-66
2023/09/13 07:31:42;;;;;;;5.80;2.50;;;;;;;21.33;54.46;101227.98;107381;1254;99738;-65
2023/09/13 07:34:10;;;;;;;4.90;3.10;;;;;;;21.44;54.34;101225.17;107377;1254;112367;-65
2023/09/13 07:36:41;;;;;;;6.90;3.20;;;;;;;21.54;54.13;101223.05;107416;1254;109646;-66
2023/09/13 07:39:10;;;;;;;12.10;2.80;;;;;;;21.68;53.90;101218.20;107389;1254;108570;-64
2023/09/13 07:41:38;;;;;;;9.50;2.90;;;;;;;21.82;53.66;101216.20;107352;1255;99172;-66
2023/09/13 07:44:06;;;;;;;10.90;2.70;;;;;;;22.00;53.40;101223.94;107362;1253;99809;-64
2023/09/13 07:46:35;;;;;;;13.50;3.00;;;;;;;22.15;52.83;101223.27;107344;1254;113025;-66
2023/09/13 07:49:06;;;;;;;9.40;2.70;;;;;;;22.29;52.39;101218.23;107395;1254;109656;-65
2023/09/13 07:51:36;;;;;;;7.40;2.50;;;;;;;22.43;52.44;101218.36;107384;1254;108189;-66
2023/09/13 07:54:07;;;;;;;11.80;2.80;;;;;;;22.59;52.15;101215.36;107389;1257;99183;-65
2023/09/13 07:56:37;;;;;;;8.70;2.80;;;;;;;22.75;50.15;101214.53;107405;1254;99064;-65
2023/09/13 07:59:07;;;;;;;6.30;2.30;;;;;;;22.87;48.77;101208.11;107430;1258;113674;-65
2023/09/13 08:01:35;;;;;;;9.50;2.40;;;;;;;23.00;48.36;101212.94;107422;1254;109292;-66
2023/09/13 08:04:04;;;;;;;12.70;2.70;;;;;;;23.14;47.28;101210.73;107385;1254;108021;-66
2023/09/13 08:06:32;;;;;;;13.30;2.60;;;;;;;23.30;46.60;101209.29;107394;1254;99178;-65
2023/09/13 08:09:01;;;;;;;14.70;2.50;;;;;;;23.45;46.55;101199.98;107279;1255;99977;-65
2023/09/13 08:11:32;;;;;;;17.20;2.70;;;;;;;23.61;46.31;101200.16;107396;1254;112688;-66
2023/09/13 08:14:00;;;;;;;8.30;2.70;;;;;;;23.77;45.71;101195.08;107369;1254;109480;-65
2023/09/13 08:16:28;;;;;;;20.70;2.50;;;;;;;23.91;45.33;101193.70;107409;1254;107438;-66
2023/09/13 08:18:57;;;;;;;15.10;2.70;;;;;;;24.05;44.93;101188.79;107371;1254;99181;-65
2023/09/13 08:21:28;;;;;;;6.30;2.80;;;;;;;24.19;44.25;101187.22;107282;1254;99129;-66
2023/09/13 08:23:56;;;;;;;8.70;3.10;;;;;;;24.33;44.33;101185.26;107380;1254;113885;-66
2023/09/13 08:26:24;;;;;;;11.10;3.10;;;;;;;24.47;43.93;101191.11;107419;1254;109811;-66
2023/09/13 08:28:56;;;;;;;14.60;2.80;;;;;;;24.63;43.85;101188.28;107389;1254;107665;-63
2023/09/13 08:31:25;;;;;;;13.10;2.60;;;;;;;24.79;43.52;101181.29;107407;1254;99189;-66
2023/09/13 08:33:53;;;;;;;13.70;3.40;;;;;;;24.97;43.35;101180.23;107138;1254;99330;-65
2023/09/13 08:36:23;;;;;;;25.90;15.80;;;;;;;25.18;42.72;101180.33;107390;1254;112810;-65
2023/09/13 08:38:51;;;;;;;10.90;3.90;;;;;;;25.34;42.07;101180.92;107359;1257;109519;-66
2023/09/13 08:41:19;;;;;;;14.60;2.70;;;;;;;25.51;41.73;101175.59;107388;1257;108288;-67
2023/09/13 08:43:50;;;;;;;9.70;2.80;;;;;;;25.70;40.88;101175.99;107374;1259;99252;-66
2023/09/13 08:46:21;;;;;;;8.80;2.20;;;;;;;25.88;40.45;101170.86;107416;1254;99744;-67
2023/09/13 08:48:51;;;;;;;6.50;2.20;;;;;;;26.12;40.35;101169.02;107392;1254;113174;-65
2023/09/13 08:51:20;;;;;;;8.80;2.10;;;;;;;26.36;39.84;101162.46;107388;1254;108998;-65
2023/09/13 08:53:51;;;;;;;10.00;2.00;;;;;;;26.60;39.81;101166.67;107338;1257;108599;-66
2023/09/13 08:56:21;;;;;;;10.50;2.30;;;;;;;26.86;39.46;101161.40;107360;1257;99214;-66
2023/09/13 08:58:51;;;;;;;9.40;2.50;;;;;;;27.12;39.54;101163.73;107382;1257;99073;-66
2023/09/13 09:01:22;;;;;;;11.60;2.30;;;;;;;27.38;38.40;101163.29;107366;1257;113515;-65
2023/09/13 09:03:50;;;;;;;15.60;2.60;;;;;;;27.63;37.77;101162.48;107329;1259;109462;-66
2023/09/13 09:06:20;;;;;;;9.40;2.20;;;;;;;27.88;36.97;101157.25;107370;1258;107358;-66
2023/09/13 09:08:49;;;;;;;6.20;2.20;;;;;;;28.11;36.34;101163.79;107370;1259;99281;-66
2023/09/13 09:11:21;;;;;;;11.40;2.60;;;;;;;28.33;36.73;101158.48;107385;1254;99124;-67
2023/09/13 09:13:52;;;;;;;4.90;2.00;;;;;;;28.64;35.85;101157.20;107397;1257;113171;-65
2023/09/13 09:16:21;;;;;;;9.30;2.20;;;;;;;28.96;35.75;101152.08;107392;1257;110148;-67
2023/09/13 09:18:51;;;;;;;10.30;2.20;;;;;;;29.34;35.48;101152.39;107405;1254;107722;-66
2023/09/13 09:21:20;;;;;;;20.20;2.50;;;;;;;29.85;34.86;101151.70;107395;1257;99256;-66
2023/09/13 09:23:48;;;;;;;17.30;2.80;;;;;;;30.41;33.74;101153.58;107274;1255;99068;-66
2023/09/13 09:26:17;;;;;;;13.80;2.60;;;;;;;31.12;33.52;101154.55;107350;1257;112476;-66
2023/09/13 09:28:46;;;;;;;10.60;2.90;;;;;;;31.85;32.44;101149.22;107412;1260;110382;-67
2023/09/13 09:31:19;;;;;;;7.70;2.30;;;;;;;32.53;31.42;101148.39;107370;1255;108266;-67
2023/09/13 09:33:48;;;;;;;11.70;2.10;;;;;;;33.12;29.24;101140.70;107367;1260;99035;-66
2023/09/13 09:36:23;;;;;;;12.70;2.10;;;;;;;33.47;29.58;101139.73;107400;1254;99051;-67
2023/09/13 09:38:53;;;;;;;7.30;2.20;;;;;;;33.86;28.59;101138.86;107398;1254;113486;-66
2023/09/13 09:41:31;;;;;;;16.20;2.80;;;;;;;34.35;28.19;101139.93;107385;1254;110111;-66
2023/09/13 09:43:59;;;;;;;12.20;2.70;;;;;;;34.77;27.13;101143.45;107407;1258;108143;-67
2023/09/13 09:46:30;;;;;;;13.80;2.70;;;;;;;34.87;26.97;101134.79;107373;1257;99213;-65
2023/09/13 09:49:00;;;;;;;11.10;2.60;;;;;;;35.23;26.58;101134.42;107406;1254;99197;-65
2023/09/13 09:51:29;;;;;;;8.20;2.80;;;;;;;35.64;26.06;101137.83;107395;1255;112608;-65
2023/09/13 09:53:58;;;;;;;9.90;2.40;;;;;;;36.05;26.12;101127.48;107417;1254;109861;-66
2023/09/13 09:56:26;;;;;;;11.90;2.60;;;;;;;36.50;25.44;101122.95;107005;1254;532231;-66
2023/09/13 09:58:54;;;;;;;8.50;2.30;;;;;;;36.83;24.88;101118.73;107355;1254;99163;-65
2023/09/13 10:01:22;;;;;;;10.50;2.50;;;;;;;37.08;24.37;101122.25;107380;1254;99076;-65
2023/09/13 10:03:54;;;;;;;8.10;1.90;;;;;;;37.40;24.52;101117.29;107404;1254;113344;-66
2023/09/13 10:06:23;;;;;;;5.50;1.90;;;;;;;37.83;23.85;101120.06;107366;1254;109161;-65
2023/09/13 10:08:51;;;;;;;7.50;2.20;;;;;;;38.12;22.85;101121.23;107384;1254;107649;-65
2023/09/13 10:11:21;;;;;;;6.30;2.30;;;;;;;38.17;22.29;101121.68;107359;1254;99303;-65
2023/09/13 10:13:49;;;;;;;6.10;1.80;;;;;;;38.19;22.39;101117.30;107411;1254;99728;-65
2023/09/13 10:16:18;;;;;;;10.30;2.00;;;;;;;38.21;22.36;101114.58;107384;1258;113248;-65
2023/09/13 10:18:49;;;;;;;11.90;5.00;;;;;;;38.32;22.13;101115.40;107398;1255;109436;-66
2023/09/13 10:21:25;;;;;;;10.90;3.10;;;;;;;38.60;22.56;101115.36;107426;1254;107129;-64
2023/09/13 10:24:01;;;;;;;8.10;1.90;;;;;;;39.01;21.59;101114.24;107372;1259;99044;-66
2023/09/13 10:26:33;;;;;;;8.90;2.40;;;;;;;39.38;21.70;101115.02;107471;1254;99097;-65
2023/09/13 10:29:34;;;;;;;7.70;2.10;;;;;;;39.75;21.57;101113.48;107364;1254;112595;-65
2023/09/13 10:32:07;;;;;;;8.80;2.10;;;;;;;40.08;20.18;101119.96;107425;1254;109249;-65
2023/09/13 10:34:41;;;;;;;8.90;2.30;;;;;;;40.15;20.52;101113.01;107342;1257;108341;-67
2023/09/13 10:37:24;;;;;;;6.80;2.90;;;;;;;40.33;19.98;101115.23;107373;1256;99057;-66
2023/09/13 10:40:10;;;;;;;12.90;2.30;;;;;;;40.64;20.69;101107.79;107397;1257;99281;-66
2023/09/13 10:42:40;;;;;;;9.20;2.10;;;;;;;40.70;19.26;101113.62;107339;1257;112745;-66
2023/09/13 10:45:14;;;;;;;7.60;2.30;;;;;;;40.31;19.48;101117.70;107356;1258;110084;-66
2023/09/13 10:47:43;;;;;;;11.10;2.00;;;;;;;40.04;20.13;101115.36;107352;1254;108262;-66
2023/09/13 10:50:17;;;;;;;10.60;2.90;;;;;;;40.46;19.98;101107.10;107351;1254;99256;-66
2023/09/13 10:52:46;;;;;;;9.80;2.40;;;;;;;40.75;19.54;101096.50;107380;1257;99086;-65
2023/09/13 10:55:15;;;;;;;8.00;1.90;;;;;;;41.17;19.85;101098.30;107382;1260;113238;-67
2023/09/13 10:57:46;;;;;;;10.90;2.70;;;;;;;41.59;18.56;101093.83;107368;1258;110158;-66
2023/09/13 11:00:16;;;;;;;9.40;2.20;;;;;;;41.65;18.47;101094.39;107343;1260;107192;-65
2023/09/13 11:02:45;;;;;;;12.90;2.50;;;;;;;41.77;19.00;101088.60;107341;1257;99096;-65
2023/09/13 11:05:36;;;;;;;10.10;2.30;;;;;;;42.12;18.69;101091.27;107437;1254;99717;-65
2023/09/13 11:08:08;;;;;;;11.00;2.20;;;;;;;42.25;18.03;101087.41;107386;1254;113608;-66
2023/09/13 11:10:36;;;;;;;14.20;2.20;;;;;;;42.22;18.60;101081.85;107425;1254;108444;-66
2023/09/13 11:13:12;;;;;;;10.70;2.30;;;;;;;42.40;18.67;101075.79;107428;1260;106562;-65
2023/09/13 11:15:53;;;;;;;10.90;2.30;;;;;;;42.69;18.45;101075.05;107436;1256;99173;-65
2023/09/13 11:18:26;;;;;;;12.90;3.00;;;;;;;42.93;18.03;101074.94;107421;1257;99093;-65
2023/09/13 11:20:56;;;;;;;11.50;2.60;;;;;;;43.07;17.16;101084.86;107443;1255;113113;-65